Time;durP1;ratioP1;P1;durP2;ratioP2;P2;SDS_P1;SDS_P2;PMS_P1;PMS_P2;Temp;Humidity;BMP_temperature;BMP_pressure;BME280_temperature;BME280_humidity;BME280_pressure;Samples;Min_cycle;Max_cycle;Signal;HPM_P1;HPM_P2
2022/07/15 00:02:12;;;;;;;73.75;69.93;;;;;;;;;;5045154;28;20025;-72
2022/07/15 00:04:38;;;;;;;154.43;146.35;;;;;;;;;;5045003;28;20029;-72
2022/07/15 00:07:04;;;;;;;98.90;93.72;;;;;;;;;;5046318;28;20037;-72
2022/07/15 00:12:15;;;;;;;60.67;57.50;;;;;;;;;;5045930;28;20469;-72
2022/07/15 00:14:40;;;;;;;165.38;156.77;;;;;;;;;;5044280;28;20120;-73
2022/07/15 00:17:07;;;;;;;95.40;90.47;;;;;;;;;;5044368;28;20521;-72
2022/07/15 00:19:36;;;;;;;173.18;164.07;;;;;;;;;;5044632;28;20039;-72
2022/07/15 00:22:01;;;;;;;157.15;149.00;;;;;;;;;;5045334;28;20088;-72
2022/07/15 00:24:28;;;;;;;196.90;186.77;;;;;;;;;;5045050;28;20135;-72
2022/07/15 00:26:54;;;;;;;172.55;163.60;;;;;;;;;;5045853;28;20025;-72
2022/07/15 00:29:19;;;;;;;133.15;126.15;;;;;;;;;;5046227;28;20427;-72
2022/07/15 00:31:44;;;;;;;193.10;183.20;;;;;;;;;;5044776;28;20048;-74
2022/07/15 00:34:10;;;;;;;211.75;200.95;;;;;;;;;;5046103;28;20048;-75
2022/07/15 00:36:35;;;;;;;72.05;68.40;;;;;;;;;;5045159;28;20080;-74
2022/07/15 00:39:01;;;;;;;149.13;141.55;;;;;;;;;;5045770;28;20031;-75
2022/07/15 00:41:26;;;;;;;215.10;204.30;;;;;;;;;;5045719;28;20025;-77
2022/07/15 00:43:52;;;;;;;196.85;186.95;;;;;;;;;;5045465;28;20037;-75
2022/07/15 00:46:18;;;;;;;250.52;237.95;;;;;;;;;;5047165;28;20371;-75
2022/07/15 00:48:45;;;;;;;175.65;166.80;;;;;;;;;;5049318;28;20106;-75
2022/07/15 00:51:10;;;;;;;190.48;180.82;;;;;;;;;;5048860;28;20057;-75
2022/07/15 00:53:38;;;;;;;254.98;242.32;;;;;;;;;;5049413;28;20466;-73
2022/07/15 00:56:06;;;;;;;265.33;252.13;;;;;;;;;;5049070;28;20374;-74
2022/07/15 00:58:34;;;;;;;246.65;234.43;;;;;;;;;;5048555;28;20032;-72
2022/07/15 01:01:01;;;;;;;218.70;207.75;;;;;;;;;;5048498;28;20355;-72
2022/07/15 01:03:27;;;;;;;194.68;184.68;;;;;;;;;;5046799;28;20040;-74
2022/07/15 01:05:54;;;;;;;182.80;173.65;;;;;;;;;;5048158;28;20036;-73
2022/07/15 01:08:19;;;;;;;177.80;168.93;;;;;;;;;;5049784;28;20078;-73
2022/07/15 01:10:45;;;;;;;186.25;176.98;;;;;;;;;;5048250;28;20880;-72
2022/07/15 01:13:11;;;;;;;148.88;141.43;;;;;;;;;;5049599;28;20104;-74
2022/07/15 01:15:36;;;;;;;149.43;141.93;;;;;;;;;;5048651;28;20463;-74
2022/07/15 01:18:02;;;;;;;125.70;118.90;;;;;;;;;;5049440;28;20040;-74
2022/07/15 01:20:29;;;;;;;86.38;81.93;;;;;;;;;;5049768;28;20024;-74
2022/07/15 01:22:55;;;;;;;64.65;61.35;;;;;;;;;;5048860;28;20029;-74
2022/07/15 01:25:21;;;;;;;45.00;42.63;;;;;;;;;;5048973;28;20032;-73
2022/07/15 01:27:46;;;;;;;38.90;36.83;;;;;;;;;;5049766;28;20328;-73
2022/07/15 01:30:11;;;;;;;36.15;34.22;;;;;;;;;;5049993;28;20025;-74
2022/07/15 01:32:37;;;;;;;31.85;30.13;;;;;;;;;;5048976;28;20376;-73
2022/07/15 01:35:03;;;;;;;31.65;29.92;;;;;;;;;;5049520;28;20032;-74
2022/07/15 01:37:29;;;;;;;37.35;35.40;;;;;;;;;;5051378;28;20587;-73
2022/07/15 01:39:54;;;;;;;42.58;40.38;;;;;;;;;;5048869;28;20029;-74
2022/07/15 01:42:20;;;;;;;49.33;46.72;;;;;;;;;;5048471;28;20078;-74
2022/07/15 01:44:45;;;;;;;49.25;46.70;;;;;;;;;;5050430;28;20044;-74
2022/07/15 01:47:11;;;;;;;66.03;62.67;;;;;;;;;;5031126;28;20475;-74
2022/07/15 01:49:36;;;;;;;91.75;87.05;;;;;;;;;;5047897;28;20102;-74
2022/07/15 01:52:04;;;;;;;74.15;70.40;;;;;;;;;;5046719;28;20506;-73
2022/07/15 01:54:30;;;;;;;73.10;69.38;;;;;;;;;;5048448;28;20061;-74
2022/07/15 01:56:56;;;;;;;80.70;76.65;;;;;;;;;;5047468;28;20029;-74
2022/07/15 01:59:22;;;;;;;83.88;79.70;;;;;;;;;;5047856;28;20045;-74
2022/07/15 02:01:48;;;;;;;73.43;69.72;;;;;;;;;;5049151;28;20052;-74
2022/07/15 02:04:14;;;;;;;92.40;87.75;;;;;;;;;;5048288;28;20525;-75
2022/07/15 02:06:40;;;;;;;108.50;103.05;;;;;;;;;;5048274;28;20029;-75
2022/07/15 02:09:06;;;;;;;76.30;72.45;;;;;;;;;;5048335;28;20029;-76
2022/07/15 02:11:32;;;;;;;86.43;82.10;;;;;;;;;;5047768;28;20029;-75
2022/07/15 02:14:01;;;;;;;73.95;70.22;;;;;;;;;;5047783;28;20029;-74
2022/07/15 02:16:30;;;;;;;68.10;64.60;;;;;;;;;;5047128;28;20033;-74
2022/07/15 02:18:55;;;;;;;74.30;70.50;;;;;;;;;;5047496;28;20060;-73
2022/07/15 02:21:21;;;;;;;72.18;68.50;;;;;;;;;;5048693;28;20175;-73
2022/07/15 02:23:47;;;;;;;68.78;65.30;;;;;;;;;;5048491;28;20021;-74
2022/07/15 02:26:13;;;;;;;80.15;76.13;;;;;;;;;;5048013;28;20037;-74
2022/07/15 02:28:38;;;;;;;76.93;73.05;;;;;;;;;;5047769;28;20427;-73
2022/07/15 02:31:05;;;;;;;78.88;74.80;;;;;;;;;;5047383;28;20128;-73
2022/07/15 02:33:30;;;;;;;74.60;70.80;;;;;;;;;;5045754;28;20106;-74
2022/07/15 02:35:56;;;;;;;77.15;73.25;;;;;;;;;;5046427;28;20025;-73
2022/07/15 02:38:22;;;;;;;69.80;66.25;;;;;;;;;;5048598;28;20055;-73
2022/07/15 02:40:48;;;;;;;72.88;69.20;;;;;;;;;;5048253;28;20096;-74
2022/07/15 02:43:14;;;;;;;81.30;77.15;;;;;;;;;;5048642;28;20045;-74
2022/07/15 02:45:40;;;;;;;80.70;76.63;;;;;;;;;;5047202;28;20474;-74
2022/07/15 02:48:06;;;;;;;87.60;83.15;;;;;;;;;;5047983;28;20043;-74
2022/07/15 02:50:32;;;;;;;84.75;80.47;;;;;;;;;;5046003;28;20045;-75
2022/07/15 02:52:57;;;;;;;93.10;88.40;;;;;;;;;;5047360;28;20116;-75
2022/07/15 02:55:23;;;;;;;91.85;87.15;;;;;;;;;;5047323;28;20032;-74
2022/07/15 02:57:48;;;;;;;82.25;78.10;;;;;;;;;;5047203;28;20040;-74
2022/07/15 03:00:19;;;;;;;90.18;85.55;;;;;;;;;;5048233;28;20029;-74
2022/07/15 03:02:48;;;;;;;84.50;80.20;;;;;;;;;;5047847;28;20462;-74
2022/07/15 03:05:14;;;;;;;93.35;88.57;;;;;;;;;;5046626;28;20052;-74
2022/07/15 03:07:40;;;;;;;112.15;106.38;;;;;;;;;;5046348;28;20083;-74
2022/07/15 03:10:07;;;;;;;108.57;103.03;;;;;;;;;;5047333;28;20025;-73
2022/07/15 03:12:33;;;;;;;120.65;114.45;;;;;;;;;;5045542;28;20025;-74
2022/07/15 03:15:01;;;;;;;159.00;150.90;;;;;;;;;;5046450;28;20048;-73
2022/07/15 03:17:26;;;;;;;119.55;113.43;;;;;;;;;;5047488;28;20044;-73
2022/07/15 03:19:52;;;;;;;100.95;95.82;;;;;;;;;;5047158;28;20377;-73
2022/07/15 03:22:17;;;;;;;106.50;101.07;;;;;;;;;;5047570;28;20025;-73
2022/07/15 03:24:43;;;;;;;97.68;92.72;;;;;;;;;;5045422;28;20067;-73
2022/07/15 03:27:08;;;;;;;100.03;94.95;;;;;;;;;;5045922;28;20052;-73
2022/07/15 03:29:35;;;;;;;112.43;106.72;;;;;;;;;;5045413;28;20403;-73
2022/07/15 03:32:00;;;;;;;125.47;119.10;;;;;;;;;;5045911;28;20781;-73
2022/07/15 03:34:26;;;;;;;121.47;115.30;;;;;;;;;;5047065;28;20037;-73
2022/07/15 03:36:52;;;;;;;167.65;159.00;;;;;;;;;;5047081;28;20028;-73
2022/07/15 03:39:18;;;;;;;148.50;140.95;;;;;;;;;;5046830;28;20029;-73
2022/07/15 03:41:43;;;;;;;168.55;159.88;;;;;;;;;;5045652;28;20506;-73
2022/07/15 03:44:09;;;;;;;160.52;152.30;;;;;;;;;;5046056;28;20096;-73
2022/07/15 03:46:34;;;;;;;164.13;155.75;;;;;;;;;;5045906;28;20690;-73
2022/07/15 03:49:00;;;;;;;204.25;193.88;;;;;;;;;;5045174;28;20024;-72
2022/07/15 03:51:30;;;;;;;198.82;188.65;;;;;;;;;;5046659;28;20025;-73
2022/07/15 03:54:00;;;;;;;155.07;147.07;;;;;;;;;;5045997;28;20375;-73
2022/07/15 03:56:26;;;;;;;189.30;179.65;;;;;;;;;;5045459;28;20386;-73
2022/07/15 03:58:51;;;;;;;157.18;149.10;;;;;;;;;;5062006;28;20036;-72
2022/07/15 04:01:17;;;;;;;178.32;169.25;;;;;;;;;;5045852;28;20029;-73
2022/07/15 04:03:42;;;;;;;130.20;123.63;;;;;;;;;;5045528;28;20431;-73
2022/07/15 04:06:07;;;;;;;136.13;129.23;;;;;;;;;;5045691;28;20029;-73
2022/07/15 04:08:33;;;;;;;169.40;160.75;;;;;;;;;;5046079;28;20021;-73
2022/07/15 04:10:58;;;;;;;170.48;161.77;;;;;;;;;;5045705;28;20031;-72
2022/07/15 04:13:24;;;;;;;143.65;136.23;;;;;;;;;;5046433;28;20078;-73
2022/07/15 04:15:49;;;;;;;148.05;140.50;;;;;;;;;;5043390;28;20044;-73
2022/07/15 04:18:14;;;;;;;134.88;128.07;;;;;;;;;;5044420;28;20029;-73
2022/07/15 04:20:40;;;;;;;133.63;126.82;;;;;;;;;;5045021;28;20040;-72
2022/07/15 04:23:05;;;;;;;84.30;79.88;;;;;;;;;;5045886;28;20090;-72
2022/07/15 04:25:31;;;;;;;71.70;68.07;;;;;;;;;;5043073;28;20029;-72
2022/07/15 04:27:56;;;;;;;70.47;66.90;;;;;;;;;;5046084;28;20163;-72
2022/07/15 04:30:22;;;;;;;66.03;62.67;;;;;;;;;;5047695;28;20039;-71
2022/07/15 04:32:47;;;;;;;56.28;53.45;;;;;;;;;;5046561;28;20033;-71
2022/07/15 04:35:13;;;;;;;63.88;60.67;;;;;;;;;;5047699;28;20171;-71
2022/07/15 04:37:38;;;;;;;58.50;55.47;;;;;;;;;;5046679;28;20108;-71
2022/07/15 04:40:07;;;;;;;64.50;61.25;;;;;;;;;;5047109;28;20025;-71
2022/07/15 04:42:32;;;;;;;62.63;59.50;;;;;;;;;;5046962;28;20056;-73
2022/07/15 04:44:57;;;;;;;50.63;48.03;;;;;;;;;;5044598;28;20133;-71
2022/07/15 04:47:23;;;;;;;63.67;60.42;;;;;;;;;;5048325;28;20048;-72
2022/07/15 04:52:32;;;;;;;61.10;58.00;;;;;;;;;;5047050;28;20044;-71
2022/07/15 04:54:57;;;;;;;59.70;56.70;;;;;;;;;;5046610;28;20363;-71
2022/07/15 04:57:23;;;;;;;63.40;60.17;;;;;;;;;;5047431;28;20462;-72
2022/07/15 04:59:48;;;;;;;50.53;47.92;;;;;;;;;;5047341;28;20024;-72
2022/07/15 05:02:14;;;;;;;58.72;55.78;;;;;;;;;;5045219;28;20013;-72
2022/07/15 05:04:40;;;;;;;54.45;51.67;;;;;;;;;;5046347;28;20029;-72
2022/07/15 05:07:06;;;;;;;61.72;58.60;;;;;;;;;;5045595;28;20029;-73
2022/07/15 05:09:31;;;;;;;63.22;60.05;;;;;;;;;;5046972;28;20378;-74
2022/07/15 05:11:57;;;;;;;73.60;69.90;;;;;;;;;;5046348;28;20133;-74
2022/07/15 05:14:22;;;;;;;62.95;59.80;;;;;;;;;;5046184;28;20300;-74
2022/07/15 05:16:48;;;;;;;62.97;59.78;;;;;;;;;;5047380;28;20114;-74
2022/07/15 05:19:13;;;;;;;82.43;78.28;;;;;;;;;;5046276;28;20029;-74
2022/07/15 05:21:39;;;;;;;52.17;49.58;;;;;;;;;;5047380;28;20116;-75
2022/07/15 05:24:04;;;;;;;77.50;73.65;;;;;;;;;;5045756;28;20029;-75
2022/07/15 05:26:30;;;;;;;76.75;72.95;;;;;;;;;;5046454;28;20123;-75
2022/07/15 05:28:55;;;;;;;69.47;66.00;;;;;;;;;;5047250;28;20513;-74
2022/07/15 05:31:21;;;;;;;67.70;64.30;;;;;;;;;;5046470;28;20056;-74
2022/07/15 05:33:47;;;;;;;68.70;65.13;;;;;;;;;;5046084;28;20077;-74
2022/07/15 05:36:13;;;;;;;69.97;66.47;;;;;;;;;;5045801;28;20412;-73
2022/07/15 05:38:40;;;;;;;78.43;74.53;;;;;;;;;;5045546;28;20159;-73
2022/07/15 05:41:05;;;;;;;77.85;73.97;;;;;;;;;;5045726;28;20021;-74
2022/07/15 05:43:31;;;;;;;84.72;80.50;;;;;;;;;;5044372;28;20031;-74
2022/07/15 05:45:56;;;;;;;80.38;76.38;;;;;;;;;;5043267;28;20060;-73
2022/07/15 05:48:21;;;;;;;89.70;85.28;;;;;;;;;;5044206;28;20068;-71
2022/07/15 05:50:47;;;;;;;84.10;79.93;;;;;;;;;;5046552;28;20035;-72
2022/07/15 05:53:12;;;;;;;92.57;88.00;;;;;;;;;;5045618;28;20036;-73
2022/07/15 05:55:38;;;;;;;102.95;97.90;;;;;;;;;;5045493;28;20675;-74
2022/07/15 05:58:08;;;;;;;79.28;75.35;;;;;;;;;;5045946;28;20402;-73
2022/07/15 06:00:34;;;;;;;77.90;74.00;;;;;;;;;;5043178;28;20025;-72
2022/07/15 06:03:00;;;;;;;77.75;73.85;;;;;;;;;;5041203;28;20584;-73
2022/07/15 06:05:26;;;;;;;83.55;79.40;;;;;;;;;;5038295;28;20095;-74
2022/07/15 06:07:51;;;;;;;68.55;65.10;;;;;;;;;;5046246;28;20060;-74
2022/07/15 06:10:16;;;;;;;68.95;65.47;;;;;;;;;;5046106;28;20033;-74
2022/07/15 06:12:42;;;;;;;84.80;80.57;;;;;;;;;;5040344;28;20033;-75
2022/07/15 06:15:08;;;;;;;96.85;91.97;;;;;;;;;;5042822;28;20033;-76
2022/07/15 06:17:34;;;;;;;80.80;76.78;;;;;;;;;;5044337;28;20099;-74
2022/07/15 06:20:00;;;;;;;98.43;93.55;;;;;;;;;;5045085;28;20351;-74
2022/07/15 06:22:25;;;;;;;74.40;70.68;;;;;;;;;;5042751;28;20575;-74
2022/07/15 06:24:51;;;;;;;75.32;71.55;;;;;;;;;;5042795;28;20111;-75
2022/07/15 06:27:16;;;;;;;76.13;72.35;;;;;;;;;;5046127;28;20113;-75
2022/07/15 06:29:42;;;;;;;50.75;48.10;;;;;;;;;;5045809;28;20576;-72
2022/07/15 06:32:08;;;;;;;119.25;113.32;;;;;;;;;;5043678;28;20040;-74
2022/07/15 06:34:33;;;;;;;99.57;94.65;;;;;;;;;;5027357;28;20033;-74
2022/07/15 06:36:59;;;;;;;103.50;98.32;;;;;;;;;;5040263;28;20021;-73
2022/07/15 06:39:24;;;;;;;110.85;105.30;;;;;;;;;;5041928;28;20041;-73
2022/07/15 06:41:50;;;;;;;97.03;92.20;;;;;;;;;;5042823;28;20510;-75
2022/07/15 06:44:15;;;;;;;118.88;112.88;;;;;;;;;;5039866;28;20112;-73
2022/07/15 06:46:41;;;;;;;59.35;56.35;;;;;;;;;;5021225;28;20032;-73
2022/07/15 06:49:07;;;;;;;171.63;162.85;;;;;;;;;;5040238;28;20417;-73
2022/07/15 06:51:32;;;;;;;77.68;72.68;;;;;;;;;;5039947;28;20032;-76
2022/07/15 06:53:58;;;;;;;91.90;87.28;;;;;;;;;;5043585;28;20021;-77
2022/07/15 06:56:24;;;;;;;139.18;131.98;;;;;;;;;;5044415;28;20064;-74
2022/07/15 06:58:49;;;;;;;169.52;161.00;;;;;;;;;;5044933;28;20021;-74
2022/07/15 07:01:14;;;;;;;241.95;229.75;;;;;;;;;;5043122;28;20028;-74
2022/07/15 07:03:40;;;;;;;215.90;205.23;;;;;;;;;;5039169;28;20216;-74
2022/07/15 07:06:05;;;;;;;191.07;181.57;;;;;;;;;;5037826;28;20029;-74
2022/07/15 07:08:31;;;;;;;89.60;85.03;;;;;;;;;;5039410;28;20040;-74
2022/07/15 07:10:56;;;;;;;202.70;192.57;;;;;;;;;;5035245;28;20091;-73
2022/07/15 07:13:23;;;;;;;117.75;111.85;;;;;;;;;;5035060;28;20518;-74
2022/07/15 07:15:49;;;;;;;217.55;206.48;;;;;;;;;;5040188;28;20032;-74
2022/07/15 07:18:14;;;;;;;214.93;203.93;;;;;;;;;;5045108;28;20021;-73
2022/07/15 07:20:43;;;;;;;226.02;214.43;;;;;;;;;;5044085;28;20041;-74
2022/07/15 07:23:10;;;;;;;356.77;338.77;;;;;;;;;;5045208;28;20029;-76
2022/07/15 07:25:35;;;;;;;250.68;237.82;;;;;;;;;;5042906;28;20032;-73
2022/07/15 07:28:03;;;;;;;183.05;173.80;;;;;;;;;;5044116;28;20025;-73
2022/07/15 07:30:29;;;;;;;208.07;197.65;;;;;;;;;;5044195;28;20060;-74
2022/07/15 07:32:54;;;;;;;333.35;315.85;;;;;;;;;;5043502;28;20060;-75
2022/07/15 07:35:20;;;;;;;295.88;280.90;;;;;;;;;;5044829;28;20564;-74
2022/07/15 07:37:45;;;;;;;267.40;254.07;;;;;;;;;;5044518;28;20036;-74
2022/07/15 07:40:11;;;;;;;305.67;290.23;;;;;;;;;;5044133;28;20039;-75
2022/07/15 07:42:38;;;;;;;293.60;278.98;;;;;;;;;;5042977;28;20505;-74
2022/07/15 07:45:03;;;;;;;322.45;306.27;;;;;;;;;;5044111;28;20402;-73
2022/07/15 07:47:29;;;;;;;251.48;238.88;;;;;;;;;;5043973;28;20069;-73
2022/07/15 07:49:54;;;;;;;282.08;267.60;;;;;;;;;;5045030;28;20100;-75
2022/07/15 07:52:20;;;;;;;288.75;274.33;;;;;;;;;;5043692;28;20029;-74
2022/07/15 07:54:45;;;;;;;254.82;242.07;;;;;;;;;;5044460;28;20092;-76
2022/07/15 07:57:11;;;;;;;332.77;315.88;;;;;;;;;;5044275;28;20029;-74
2022/07/15 07:59:36;;;;;;;79.65;75.55;;;;;;;;;;5043489;28;20091;-75
2022/07/15 08:02:03;;;;;;;131.13;124.45;;;;;;;;;;5044204;28;20028;-75
2022/07/15 08:04:29;;;;;;;239.77;227.57;;;;;;;;;;5043266;28;20035;-76
2022/07/15 08:06:54;;;;;;;147.13;139.70;;;;;;;;;;5043912;28;20120;-75
2022/07/15 08:09:20;;;;;;;267.40;254.13;;;;;;;;;;5041926;28;20043;-73
2022/07/15 08:11:45;;;;;;;330.92;314.25;;;;;;;;;;5038481;28;20045;-75
2022/07/15 08:14:10;;;;;;;282.08;268.02;;;;;;;;;;5044115;28;20033;-74
2022/07/15 08:16:36;;;;;;;342.30;324.80;;;;;;;;;;5043961;28;20039;-74
2022/07/15 08:19:02;;;;;;;322.75;306.38;;;;;;;;;;5044885;28;20021;-73
2022/07/15 08:21:27;;;;;;;193.73;184.10;;;;;;;;;;5043287;28;20044;-76
2022/07/15 08:23:54;;;;;;;191.10;181.52;;;;;;;;;;5043492;28;20569;-76
2022/07/15 08:26:23;;;;;;;257.17;243.90;;;;;;;;;;5044207;28;20029;-76
2022/07/15 08:28:50;;;;;;;143.73;136.35;;;;;;;;;;5025359;28;20025;-77
2022/07/15 08:31:16;;;;;;;63.75;60.50;;;;;;;;;;5043865;28;20029;-75
2022/07/15 08:33:42;;;;;;;63.50;60.25;;;;;;;;;;5043630;28;20040;-78
2022/07/15 08:36:07;;;;;;;177.60;168.57;;;;;;;;;;5044290;28;20044;-75
2022/07/15 08:38:33;;;;;;;82.85;78.55;;;;;;;;;;5043516;28;20526;-75
2022/07/15 08:40:58;;;;;;;68.57;65.07;;;;;;;;;;5043486;28;20063;-76
2022/07/15 08:43:23;;;;;;;119.55;113.43;;;;;;;;;;5043667;28;20033;-76
2022/07/15 08:45:49;;;;;;;88.72;84.25;;;;;;;;;;5041908;28;20029;-74
2022/07/15 08:48:17;;;;;;;77.70;73.82;;;;;;;;;;5044527;28;20388;-77
2022/07/15 08:50:43;;;;;;;70.35;66.80;;;;;;;;;;5043248;28;20057;-75
2022/07/15 08:53:08;;;;;;;79.60;75.43;;;;;;;;;;5043720;28;20052;-76
2022/07/15 08:55:34;;;;;;;78.60;74.57;;;;;;;;;;5044396;28;20032;-77
2022/07/15 08:58:00;;;;;;;53.58;50.85;;;;;;;;;;5043655;28;20021;-76
2022/07/15 09:00:30;;;;;;;267.73;254.20;;;;;;;;;;5043919;28;20251;-76
2022/07/15 09:02:57;;;;;;;;;;;;;;;;;;5044177;28;20509;-75
2022/07/15 09:05:26;;;;;;;59.97;56.95;;;;;;;;;;5043618;28;20444;-76
2022/07/15 09:08:10;;;;;;;61.67;58.58;;;;;;;;;;5047232;28;20036;-77
2022/07/15 09:10:44;;;;;;;56.92;54.03;;;;;;;;;;5047092;28;20033;-75
2022/07/15 09:13:12;;;;;;;102.85;97.78;;;;;;;;;;5047722;28;20370;-77
2022/07/15 09:15:39;;;;;;;80.55;76.53;;;;;;;;;;5047312;28;20364;-76
2022/07/15 09:18:11;;;;;;;76.55;72.72;;;;;;;;;;5046550;28;20032;-76
2022/07/15 09:20:38;;;;;;;72.65;68.75;;;;;;;;;;5046915;28;20037;-74
2022/07/15 09:23:04;;;;;;;68.72;65.28;;;;;;;;;;5048059;28;20044;-76
2022/07/15 09:25:33;;;;;;;60.42;57.40;;;;;;;;;;5047701;28;20047;-75
2022/07/15 09:28:01;;;;;;;56.15;53.20;;;;;;;;;;5047226;28;20409;-74
2022/07/15 09:33:34;;;;;;;76.85;72.95;;;;;;;;;;5047028;28;20114;-76
2022/07/15 09:36:21;;;;;;;78.03;74.15;;;;;;;;;;5046856;28;20087;-78
2022/07/15 09:38:51;;;;;;;357.38;338.63;;;;;;;;;;5045965;28;20273;-75
2022/07/15 09:41:27;;;;;;;75.65;71.78;;;;;;;;;;5046252;28;20036;-75
2022/07/15 09:43:55;;;;;;;77.38;73.55;;;;;;;;;;5047360;28;20106;-76
2022/07/15 09:46:23;;;;;;;68.80;65.30;;;;;;;;;;5046641;28;20064;-76
2022/07/15 09:48:51;;;;;;;88.90;84.50;;;;;;;;;;5047082;28;20071;-76
2022/07/15 09:51:17;;;;;;;78.93;74.97;;;;;;;;;;5046346;28;20044;-75
2022/07/15 09:53:43;;;;;;;89.28;84.85;;;;;;;;;;5047021;28;20905;-75
2022/07/15 09:56:12;;;;;;;102.93;97.82;;;;;;;;;;5047005;28;20029;-75
2022/07/15 09:58:39;;;;;;;51.47;48.83;;;;;;;;;;5046763;28;20337;-75
2022/07/15 10:01:07;;;;;;;79.50;75.53;;;;;;;;;;5046371;28;20029;-76
2022/07/15 10:03:33;;;;;;;90.30;85.78;;;;;;;;;;5046601;28;20044;-76
2022/07/15 10:06:00;;;;;;;85.45;81.18;;;;;;;;;;5047199;28;20041;-75
2022/07/15 10:08:27;;;;;;;94.68;89.95;;;;;;;;;;5046673;28;20116;-75
2022/07/15 10:10:55;;;;;;;74.53;70.72;;;;;;;;;;5046904;28;20044;-74
2022/07/15 10:13:37;;;;;;;84.45;80.18;;;;;;;;;;5046335;28;20057;-75
2022/07/15 10:16:30;;;;;;;60.10;57.05;;;;;;;;;;5047039;28;20037;-75
2022/07/15 10:19:20;;;;;;;101.68;96.63;;;;;;;;;;5045544;28;20594;-76
2022/07/15 10:22:05;;;;;;;90.15;85.45;;;;;;;;;;5044885;28;20127;-76
2022/07/15 10:24:44;;;;;;;97.07;92.28;;;;;;;;;;5047502;28;20086;-77
2022/07/15 10:27:57;;;;;;;104.63;99.43;;;;;;;;;;5046987;28;20033;-75
2022/07/15 10:30:24;;;;;;;84.22;80.03;;;;;;;;;;5023985;28;20063;-76
2022/07/15 10:33:20;;;;;;;86.72;82.40;;;;;;;;;;5047842;28;20029;-75
2022/07/15 10:35:50;;;;;;;79.40;75.43;;;;;;;;;;5045379;28;20036;-74
2022/07/15 10:38:38;;;;;;;79.47;75.47;;;;;;;;;;5045907;28;20146;-75
2022/07/15 10:41:03;;;;;;;103.35;98.20;;;;;;;;;;5046569;28;20053;-75
2022/07/15 10:43:45;;;;;;;111.70;106.18;;;;;;;;;;5047162;28;20079;-77
2022/07/15 10:46:17;;;;;;;106.88;101.57;;;;;;;;;;5045597;28;20075;-77
2022/07/15 10:48:44;;;;;;;151.60;144.02;;;;;;;;;;5045971;28;20048;-77
2022/07/15 10:51:10;;;;;;;134.82;128.02;;;;;;;;;;5047028;28;20056;-72
2022/07/15 10:53:44;;;;;;;111.70;106.15;;;;;;;;;;5045472;28;20037;-77
2022/07/15 10:56:30;;;;;;;124.95;118.63;;;;;;;;;;5044646;28;20108;-75
2022/07/15 10:59:19;;;;;;;164.95;156.70;;;;;;;;;;5045998;28;20037;-76
2022/07/15 11:02:04;;;;;;;127.35;121.03;;;;;;;;;;5048676;28;20083;-76
2022/07/15 11:04:31;;;;;;;133.10;126.35;;;;;;;;;;5044459;28;20124;-78
2022/07/15 11:07:03;;;;;;;180.10;171.00;;;;;;;;;;5049248;28;20104;-76
2022/07/15 11:10:02;;;;;;;116.90;110.68;;;;;;;;;;5038507;28;20033;-76
2022/07/15 11:12:30;;;;;;;99.13;94.13;;;;;;;;;;5043632;28;20037;-78
2022/07/15 11:15:03;;;;;;;146.60;139.20;;;;;;;;;;5044786;28;20033;-75
2022/07/15 11:17:29;;;;;;;250.32;237.95;;;;;;;;;;5045224;28;20037;-75
2022/07/15 11:20:08;;;;;;;236.70;225.05;;;;;;;;;;5046107;28;20142;-74
2022/07/15 11:22:34;;;;;;;239.85;228.10;;;;;;;;;;5046467;28;20062;-78
2022/07/15 11:25:00;;;;;;;250.20;237.85;;;;;;;;;;5045496;28;20040;-77
2022/07/15 11:27:25;;;;;;;242.70;230.73;;;;;;;;;;5045228;28;20033;-74
2022/07/15 11:29:59;;;;;;;207.35;197.05;;;;;;;;;;5045257;28;20102;-76
2022/07/15 11:32:25;;;;;;;251.00;238.65;;;;;;;;;;5043341;28;20090;-75
2022/07/15 11:34:56;;;;;;;90.38;85.82;;;;;;;;;;5045478;28;20624;-75
2022/07/15 11:37:36;;;;;;;138.35;131.38;;;;;;;;;;5044376;28;20086;-77
2022/07/15 11:40:09;;;;;;;192.65;183.02;;;;;;;;;;5045015;28;20090;-77
2022/07/15 11:45:34;;;;;;;173.73;164.98;;;;;;;;;;5044224;28;20098;-74
2022/07/15 11:48:00;;;;;;;240.13;227.88;;;;;;;;;;5044666;28;20028;-72
2022/07/15 11:50:26;;;;;;;227.02;215.82;;;;;;;;;;5042818;28;20040;-74
2022/07/15 11:52:57;;;;;;;183.82;174.77;;;;;;;;;;5044786;28;20032;-71
2022/07/15 11:55:23;;;;;;;141.32;134.35;;;;;;;;;;5044380;28;20532;-72
2022/07/15 11:57:51;;;;;;;207.02;196.88;;;;;;;;;;5044057;28;20050;-73
2022/07/15 12:00:17;;;;;;;167.40;159.15;;;;;;;;;;5044249;28;20063;-75
2022/07/15 12:02:42;;;;;;;196.23;186.60;;;;;;;;;;5044543;28;20100;-77
2022/07/15 12:05:08;;;;;;;202.63;192.77;;;;;;;;;;5042993;28;20370;-79
2022/07/15 12:07:45;;;;;;;169.05;160.70;;;;;;;;;;5041484;28;20155;-77
2022/07/15 12:10:11;;;;;;;181.02;172.18;;;;;;;;;;5043035;28;20030;-73
2022/07/15 12:13:01;;;;;;;217.30;206.75;;;;;;;;;;5044020;28;20132;-74
2022/07/15 12:15:28;;;;;;;181.02;172.13;;;;;;;;;;5042608;28;20367;-73
2022/07/15 12:17:55;;;;;;;192.57;183.18;;;;;;;;;;5040358;28;20025;-73
2022/07/15 12:20:21;;;;;;;161.40;153.40;;;;;;;;;;5039990;28;20059;-72
2022/07/15 12:23:07;;;;;;;153.52;145.95;;;;;;;;;;5040142;28;20041;-77
2022/07/15 12:25:33;;;;;;;146.82;139.55;;;;;;;;;;5059706;28;20032;-78
2022/07/15 12:27:59;;;;;;;140.07;133.13;;;;;;;;;;5044800;28;20085;-76
2022/07/15 12:30:34;;;;;;;168.23;159.95;;;;;;;;;;5042736;28;20104;-73
2022/07/15 12:33:18;;;;;;;137.63;130.88;;;;;;;;;;5043333;28;20163;-76
2022/07/15 12:35:44;;;;;;;148.13;140.80;;;;;;;;;;5043040;28;20033;-73
2022/07/15 12:38:14;;;;;;;114.47;108.88;;;;;;;;;;5046111;28;20032;-80
2022/07/15 12:40:40;;;;;;;159.15;151.32;;;;;;;;;;5038508;28;20040;-74
2022/07/15 12:43:05;;;;;;;128.40;122.05;;;;;;;;;;5041373;28;20028;-73
2022/07/15 12:45:37;;;;;;;126.63;120.43;;;;;;;;;;5043181;28;20029;-73
2022/07/15 12:48:13;;;;;;;160.23;152.35;;;;;;;;;;5045586;28;20107;-73
2022/07/15 12:50:50;;;;;;;156.32;148.68;;;;;;;;;;5047483;28;20029;-72
2022/07/15 12:53:21;;;;;;;143.25;136.15;;;;;;;;;;5046960;28;20506;-78
2022/07/15 12:55:49;;;;;;;160.48;152.55;;;;;;;;;;5047465;28;20028;-74
2022/07/15 12:58:24;;;;;;;148.07;140.75;;;;;;;;;;5047461;28;20057;-75
2022/07/15 13:00:49;;;;;;;120.30;114.40;;;;;;;;;;5063093;28;20116;-72
2022/07/15 13:03:15;;;;;;;125.72;119.55;;;;;;;;;;5046227;28;20036;-75
2022/07/15 13:05:46;;;;;;;147.23;139.95;;;;;;;;;;5051383;28;20683;-76
2022/07/15 13:08:14;;;;;;;136.95;130.25;;;;;;;;;;5049091;28;20025;-78
2022/07/15 13:10:41;;;;;;;126.65;120.43;;;;;;;;;;5050120;28;20667;-76
2022/07/15 13:13:08;;;;;;;133.38;126.82;;;;;;;;;;5050203;28;20596;-75
2022/07/15 13:15:34;;;;;;;133.85;127.25;;;;;;;;;;5048189;28;20135;-72
2022/07/15 13:18:00;;;;;;;145.95;138.77;;;;;;;;;;5049743;28;20045;-74
2022/07/15 13:20:26;;;;;;;126.45;120.20;;;;;;;;;;5045923;28;20667;-74
2022/07/15 13:22:52;;;;;;;151.10;143.60;;;;;;;;;;5044980;28;20025;-74
2022/07/15 13:25:18;;;;;;;122.05;116.03;;;;;;;;;;5046925;28;20035;-73
2022/07/15 13:27:44;;;;;;;155.13;147.45;;;;;;;;;;5046735;28;20473;-76
2022/07/15 13:30:11;;;;;;;136.65;129.85;;;;;;;;;;5046163;28;20045;-72
2022/07/15 13:32:37;;;;;;;120.78;114.85;;;;;;;;;;5045804;28;20037;-73
2022/07/15 13:35:03;;;;;;;145.00;137.82;;;;;;;;;;5044272;28;20041;-74
2022/07/15 13:37:29;;;;;;;122.45;116.35;;;;;;;;;;5046899;28;20036;-74
2022/07/15 13:39:54;;;;;;;135.15;128.48;;;;;;;;;;5044857;28;20028;-74
2022/07/15 13:42:20;;;;;;;150.88;143.25;;;;;;;;;;5045552;28;20078;-74
2022/07/15 13:44:45;;;;;;;148.85;141.45;;;;;;;;;;5046047;28;20037;-74
2022/07/15 13:47:11;;;;;;;129.18;122.78;;;;;;;;;;5045813;28;20031;-73
2022/07/15 13:52:20;;;;;;;123.22;117.13;;;;;;;;;;5045206;28;20029;-74
2022/07/15 13:54:46;;;;;;;79.28;75.28;;;;;;;;;;5046353;28;20045;-75
2022/07/15 13:57:11;;;;;;;99.97;95.05;;;;;;;;;;5049133;28;20052;-74
2022/07/15 13:59:37;;;;;;;76.88;73.05;;;;;;;;;;5046074;28;20056;-78
2022/07/15 14:02:04;;;;;;;88.65;84.25;;;;;;;;;;5044729;28;20696;-76
2022/07/15 14:04:33;;;;;;;92.13;87.57;;;;;;;;;;5045842;28;20059;-74
2022/07/15 14:06:59;;;;;;;69.93;66.32;;;;;;;;;;5044831;28;20036;-72
2022/07/15 14:09:24;;;;;;;62.22;59.13;;;;;;;;;;5046321;28;20067;-75
2022/07/15 14:11:49;;;;;;;70.88;67.38;;;;;;;;;;5045922;28;20119;-75
2022/07/15 14:14:15;;;;;;;76.47;72.68;;;;;;;;;;5043905;28;20112;-74
2022/07/15 14:16:40;;;;;;;87.47;83.15;;;;;;;;;;5045316;28;20024;-71
2022/07/15 14:19:06;;;;;;;76.05;72.25;;;;;;;;;;5044622;28;20682;-75
2022/07/15 14:21:32;;;;;;;62.15;59.05;;;;;;;;;;5044549;28;20036;-74